createdAt,value
2023-04-15T00:07:35.524Z,5.70
2023-04-15T00:17:39.863Z,5.67
2023-04-15T00:27:44.255Z,6.57
2023-04-15T00:37:47.215Z,7.43
2023-04-15T00:47:52.390Z,7.20
2023-04-15T00:57:56.206Z,8.32
2023-04-15T01:08:00.659Z,8.10
2023-04-15T01:18:04.451Z,8.60
2023-04-15T01:28:09.564Z,8.38
2023-04-15T01:38:13.636Z,8.27
2023-04-15T01:48:18.026Z,10.00
2023-04-15T01:58:22.036Z,9.70
2023-04-15T02:08:27.088Z,6.30
2023-04-15T02:28:34.286Z,9.68
2023-04-15T02:38:38.263Z,9.63
2023-04-15T02:48:42.870Z,11.63
2023-04-15T02:58:46.664Z,12.03
2023-04-15T03:08:51.402Z,10.50
2023-04-15T03:18:55.763Z,11.00
2023-04-15T03:29:01.732Z,13.67
2023-04-15T03:39:05.863Z,12.65
2023-04-15T03:49:10.212Z,13.65
2023-04-15T03:59:13.288Z,10.47
2023-04-15T04:09:17.863Z,14.93
2023-04-15T04:19:21.032Z,15.43
2023-04-15T04:29:25.595Z,14.88
2023-04-15T04:39:28.712Z,15.50
2023-04-15T04:49:33.051Z,15.10
2023-04-15T04:59:36.616Z,16.07
2023-04-15T05:09:41.229Z,15.18
2023-04-15T05:19:44.212Z,17.10
2023-04-15T05:29:48.580Z,15.88
2023-04-15T05:39:52.108Z,12.60
2023-04-15T05:49:57.002Z,16.10
2023-04-15T06:00:00.037Z,16.60
2023-04-15T06:10:04.905Z,15.68
2023-04-15T06:20:08.976Z,16.90
2023-04-15T06:30:14.190Z,13.10
2023-04-15T06:40:17.695Z,13.98
2023-04-15T06:50:22.158Z,14.85
2023-04-15T07:00:25.517Z,12.90
2023-04-15T07:10:38.785Z,14.43
2023-04-15T07:20:41.773Z,13.43
2023-04-15T07:30:53.181Z,14.10
2023-04-15T07:40:59.069Z,15.00
2023-04-15T07:51:10.945Z,11.82
2023-04-15T08:01:14.927Z,9.82
2023-04-15T08:11:26.256Z,9.95
2023-04-15T08:21:32.361Z,8.80
2023-04-15T08:31:43.585Z,9.38
2023-04-15T08:41:57.760Z,9.45
2023-04-15T08:52:02.822Z,6.17
2023-04-15T09:02:06.790Z,6.85
2023-04-15T09:12:17.017Z,5.10
2023-04-15T09:22:23.381Z,5.80
2023-04-15T09:32:31.416Z,5.75
2023-04-15T09:42:38.144Z,4.90
2023-04-15T09:52:48.900Z,3.95
2023-04-15T10:02:55.589Z,4.47
2023-04-15T10:13:10.515Z,4.18
2023-04-15T10:23:13.959Z,4.38
2023-04-15T10:33:23.367Z,3.60
2023-04-15T10:43:28.194Z,3.97
2023-04-15T10:53:40.062Z,3.88
2023-04-15T11:03:44.763Z,3.60
2023-04-15T11:24:02.207Z,3.40
2023-04-15T11:34:11.441Z,3.60
2023-04-15T11:44:19.337Z,2.85
2023-04-15T11:54:27.494Z,3.58
2023-04-15T12:04:33.945Z,4.32
2023-04-15T12:14:43.262Z,2.60
2023-04-15T12:24:57.434Z,4.50
2023-04-15T12:35:01.828Z,3.00
2023-04-15T12:45:07.882Z,2.95
2023-04-15T12:55:15.765Z,2.70
2023-04-15T13:05:22.652Z,2.20
2023-04-15T13:15:34.714Z,2.20
2023-04-15T13:25:41.203Z,2.28
2023-04-15T13:35:49.008Z,2.85
2023-04-15T13:45:56.660Z,2.08
2023-04-15T13:56:05.255Z,1.83
2023-04-15T14:06:14.620Z,2.10
2023-04-15T14:16:23.303Z,1.70
2023-04-15T14:26:29.921Z,1.58
2023-04-15T14:36:41.775Z,1.55
2023-04-15T14:46:48.109Z,1.33
2023-04-15T14:56:55.905Z,1.20
2023-04-15T15:07:02.289Z,1.65
2023-04-15T15:17:13.122Z,1.20
2023-04-15T15:27:20.427Z,0.80
2023-04-15T15:37:31.688Z,1.10
2023-04-15T15:47:35.350Z,1.23
2023-04-15T15:57:46.541Z,1.38
2023-04-15T16:07:52.576Z,1.27
2023-04-15T16:18:03.283Z,1.27
2023-04-15T16:28:22.668Z,2.00
2023-04-15T16:38:29.847Z,1.58
2023-04-15T16:48:32.921Z,2.20
2023-04-15T16:58:37.303Z,1.63
2023-04-15T17:08:42.236Z,1.30
2023-04-15T17:18:53.214Z,1.83
2023-04-15T17:28:58.446Z,1.90
2023-04-15T17:39:11.962Z,2.00
2023-04-15T17:49:15.423Z,1.63
2023-04-15T17:59:26.346Z,2.40
2023-04-15T18:09:32.315Z,3.00
2023-04-15T18:19:55.187Z,2.50
2023-04-15T18:29:58.389Z,2.70
2023-04-15T18:40:02.895Z,3.20
2023-04-15T18:50:06.631Z,2.73
2023-04-15T19:00:12.715Z,2.75
2023-04-15T19:10:15.788Z,2.50
2023-04-15T19:20:20.258Z,2.28
2023-04-15T19:30:23.365Z,2.33
2023-04-15T19:40:27.767Z,2.25
2023-04-15T19:50:30.803Z,2.07
2023-04-15T20:00:35.351Z,2.38
2023-04-15T20:10:38.854Z,2.40
2023-04-15T20:20:43.294Z,2.30
2023-04-15T20:30:47.196Z,2.30
2023-04-15T20:40:51.571Z,2.70
2023-04-15T20:50:54.566Z,2.37
2023-04-15T21:00:59.701Z,2.28
2023-04-15T21:11:02.783Z,2.13
2023-04-15T21:21:07.334Z,2.20
2023-04-15T21:31:10.314Z,2.40
2023-04-15T21:41:14.658Z,2.92
2023-04-15T21:51:17.679Z,3.53
2023-04-15T22:01:22.086Z,3.00
2023-04-15T22:11:28.240Z,3.30
2023-04-15T22:21:33.002Z,3.75
2023-04-15T22:31:36.085Z,2.37
2023-04-15T22:41:40.492Z,3.28
2023-04-15T22:51:44.937Z,3.40
2023-04-15T23:01:49.398Z,3.33
2023-04-15T23:11:52.515Z,5.37
2023-04-15T23:21:56.946Z,4.72
2023-04-15T23:32:00.302Z,4.90
2023-04-15T23:42:04.845Z,5.15
2023-04-15T23:52:08.034Z,5.20
